Terminal Aerodrome Forecast
Issued by NWS

Home | Current Version | Previous Version | Text Only | Print | Product List | Glossary On
Versions: 1 2 3 4 5 6 7 8 9 10 11 12 13 14 15 16
000
FTUS43 KILX 230500
TAFDEC
TAF
KDEC 230527Z 2306/2406 11005KT P6SM SCT250
     FM231500 19010KT P6SM BKN200
     FM232300 19008KT P6SM VCSH SCT030 BKN040
     FM240300 22005KT P6SM BKN035=

USA.gov is the U.S. government's official web portal to all federal, state and local government web resources and services.